sensor_id;sensor_type;location;lat;lon;timestamp;temperature;humidity
43043;DHT22;28667;50.758;6.096;2023-04-03T00:01:34;1.20;99.90
43043;DHT22;28667;50.758;6.096;2023-04-03T00:04:06;1.20;99.90
43043;DHT22;28667;50.758;6.096;2023-04-03T00:06:36;1.20;99.90
43043;DHT22;28667;50.758;6.096;2023-04-03T00:09:09;1.20;99.90
43043;DHT22;28667;50.758;6.096;2023-04-03T00:11:36;1.10;99.90
43043;DHT22;28667;50.758;6.096;2023-04-03T00:14:19;1.10;99.90
43043;DHT22;28667;50.758;6.096;2023-04-03T00:17:02;1.10;99.90
43043;DHT22;28667;50.758;6.096;2023-04-03T00:19:35;1.00;99.90
43043;DHT22;28667;50.758;6.096;2023-04-03T00:22:10;1.00;99.90
43043;DHT22;28667;50.758;6.096;2023-04-03T00:25:12;0.90;99.90
43043;DHT22;28667;50.758;6.096;2023-04-03T00:27:41;0.90;99.90
43043;DHT22;28667;50.758;6.096;2023-04-03T00:30:13;0.90;99.90
43043;DHT22;28667;50.758;6.096;2023-04-03T00:32:48;0.80;99.90
43043;DHT22;28667;50.758;6.096;2023-04-03T00:35:20;0.80;99.90
43043;DHT22;28667;50.758;6.096;2023-04-03T00:37:59;0.80;99.90
43043;DHT22;28667;50.758;6.096;2023-04-03T00:40:37;0.80;99.90
43043;DHT22;28667;50.758;6.096;2023-04-03T00:43:28;0.80;99.90
43043;DHT22;28667;50.758;6.096;2023-04-03T00:46:12;0.80;99.90
43043;DHT22;28667;50.758;6.096;2023-04-03T00:48:48;0.90;99.90
43043;DHT22;28667;50.758;6.096;2023-04-03T00:51:50;0.90;99.90
43043;DHT22;28667;50.758;6.096;2023-04-03T00:54:19;0.90;99.90
43043;DHT22;28667;50.758;6.096;2023-04-03T00:56:55;0.80;99.90
43043;DHT22;28667;50.758;6.096;2023-04-03T00:59:30;0.80;99.90
43043;DHT22;28667;50.758;6.096;2023-04-03T01:02:24;0.70;99.90
43043;DHT22;28667;50.758;6.096;2023-04-03T01:04:51;0.70;99.90
43043;DHT22;28667;50.758;6.096;2023-04-03T01:07:29;0.60;99.90
43043;DHT22;28667;50.758;6.096;2023-04-03T01:10:27;0.60;99.90
43043;DHT22;28667;50.758;6.096;2023-04-03T01:12:55;0.50;99.90
43043;DHT22;28667;50.758;6.096;2023-04-03T01:15:32;0.50;99.90
43043;DHT22;28667;50.758;6.096;2023-04-03T01:18:11;0.40;99.90
43043;DHT22;28667;50.758;6.096;2023-04-03T01:26:24;0.30;99.90
43043;DHT22;28667;50.758;6.096;2023-04-03T01:29:03;0.20;99.90
43043;DHT22;28667;50.758;6.096;2023-04-03T01:34:13;0.10;99.90
43043;DHT22;28667;50.758;6.096;2023-04-03T01:36:54;0.10;99.90
43043;DHT22;28667;50.758;6.096;2023-04-03T01:39:24;0.00;99.90
43043;DHT22;28667;50.758;6.096;2023-04-03T01:41:54;0.00;99.90
43043;DHT22;28667;50.758;6.096;2023-04-03T01:44:53;-0.10;99.90
43043;DHT22;28667;50.758;6.096;2023-04-03T01:47:47;-0.10;99.90
43043;DHT22;28667;50.758;6.096;2023-04-03T01:50:26;-0.20;99.90
43043;DHT22;28667;50.758;6.096;2023-04-03T01:53:17;-0.20;99.90
43043;DHT22;28667;50.758;6.096;2023-04-03T01:55:53;-0.20;99.90
43043;DHT22;28667;50.758;6.096;2023-04-03T01:58:32;-0.20;99.90
43043;DHT22;28667;50.758;6.096;2023-04-03T02:01:02;-0.30;99.90
43043;DHT22;28667;50.758;6.096;2023-04-03T02:03:33;-0.30;99.90
43043;DHT22;28667;50.758;6.096;2023-04-03T02:06:06;-0.30;99.90
43043;DHT22;28667;50.758;6.096;2023-04-03T02:08:39;-0.40;99.90
43043;DHT22;28667;50.758;6.096;2023-04-03T02:11:07;-0.40;99.90
43043;DHT22;28667;50.758;6.096;2023-04-03T02:13:38;-0.40;99.90
43043;DHT22;28667;50.758;6.096;2023-04-03T02:16:07;-0.40;99.90
43043;DHT22;28667;50.758;6.096;2023-04-03T02:18:43;-0.50;99.90
43043;DHT22;28667;50.758;6.096;2023-04-03T02:21:17;-0.50;99.90
43043;DHT22;28667;50.758;6.096;2023-04-03T02:23:56;-0.50;99.90
43043;DHT22;28667;50.758;6.096;2023-04-03T02:26:30;-0.60;99.90
43043;DHT22;28667;50.758;6.096;2023-04-03T02:28:59;-0.60;99.90
43043;DHT22;28667;50.758;6.096;2023-04-03T02:31:32;-0.60;99.90
43043;DHT22;28667;50.758;6.096;2023-04-03T02:34:02;-0.60;99.90
43043;DHT22;28667;50.758;6.096;2023-04-03T02:36:35;-0.70;99.90
43043;DHT22;28667;50.758;6.096;2023-04-03T02:39:10;-0.70;99.90
43043;DHT22;28667;50.758;6.096;2023-04-03T02:41:42;-0.70;99.90
43043;DHT22;28667;50.758;6.096;2023-04-03T02:44:23;-0.70;99.90
43043;DHT22;28667;50.758;6.096;2023-04-03T02:46:52;-0.80;99.90
43043;DHT22;28667;50.758;6.096;2023-04-03T02:49:23;-0.80;99.90
43043;DHT22;28667;50.758;6.096;2023-04-03T02:51:53;-0.80;99.90
43043;DHT22;28667;50.758;6.096;2023-04-03T02:54:26;-0.80;99.90
43043;DHT22;28667;50.758;6.096;2023-04-03T02:57:06;-0.80;99.90
43043;DHT22;28667;50.758;6.096;2023-04-03T02:59:39;-0.90;99.90
43043;DHT22;28667;50.758;6.096;2023-04-03T03:02:14;-0.90;99.90
43043;DHT22;28667;50.758;6.096;2023-04-03T03:04:46;-0.90;99.90
43043;DHT22;28667;50.758;6.096;2023-04-03T03:07:19;-0.90;99.90
43043;DHT22;28667;50.758;6.096;2023-04-03T03:10:20;-1.00;99.90
43043;DHT22;28667;50.758;6.096;2023-04-03T03:12:55;-0.90;99.90
43043;DHT22;28667;50.758;6.096;2023-04-03T03:15:26;-1.00;99.90
43043;DHT22;28667;50.758;6.096;2023-04-03T03:17:55;-1.00;99.90
43043;DHT22;28667;50.758;6.096;2023-04-03T03:20:27;-1.00;99.90
43043;DHT22;28667;50.758;6.096;2023-04-03T03:23:18;-1.00;99.90
43043;DHT22;28667;50.758;6.096;2023-04-03T03:26:10;-1.10;99.90
43043;DHT22;28667;50.758;6.096;2023-04-03T03:28:39;-1.10;99.90
43043;DHT22;28667;50.758;6.096;2023-04-03T03:31:16;-1.10;99.90
43043;DHT22;28667;50.758;6.096;2023-04-03T03:33:47;-1.10;99.90
43043;DHT22;28667;50.758;6.096;2023-04-03T03:36:34;-1.10;99.90
43043;DHT22;28667;50.758;6.096;2023-04-03T03:39:12;-1.10;99.90
43043;DHT22;28667;50.758;6.096;2023-04-03T03:41:50;-1.10;99.90
43043;DHT22;28667;50.758;6.096;2023-04-03T03:44:21;-1.20;99.90
43043;DHT22;28667;50.758;6.096;2023-04-03T03:46:58;-1.20;99.90
43043;DHT22;28667;50.758;6.096;2023-04-03T03:49:35;-1.20;99.90
43043;DHT22;28667;50.758;6.096;2023-04-03T03:52:05;-1.20;99.90
43043;DHT22;28667;50.758;6.096;2023-04-03T03:54:34;-1.20;99.90
43043;DHT22;28667;50.758;6.096;2023-04-03T03:57:10;-1.20;99.90
43043;DHT22;28667;50.758;6.096;2023-04-03T03:59:41;-1.30;99.90
43043;DHT22;28667;50.758;6.096;2023-04-03T04:02:14;-1.30;99.90
43043;DHT22;28667;50.758;6.096;2023-04-03T04:04:49;-1.30;99.90
43043;DHT22;28667;50.758;6.096;2023-04-03T04:07:24;-1.30;99.90
43043;DHT22;28667;50.758;6.096;2023-04-03T04:10:12;-1.30;99.90
43043;DHT22;28667;50.758;6.096;2023-04-03T04:13:17;-1.30;99.90
43043;DHT22;28667;50.758;6.096;2023-04-03T04:15:48;-1.30;99.90
43043;DHT22;28667;50.758;6.096;2023-04-03T04:18:22;-1.30;99.90
43043;DHT22;28667;50.758;6.096;2023-04-03T04:21:02;-1.40;99.90
43043;DHT22;28667;50.758;6.096;2023-04-03T04:23:29;-1.40;99.90
43043;DHT22;28667;50.758;6.096;2023-04-03T04:26:04;-1.40;99.90
43043;DHT22;28667;50.758;6.096;2023-04-03T04:28:53;-1.40;99.90
43043;DHT22;28667;50.758;6.096;2023-04-03T04:31:24;-1.40;99.90
43043;DHT22;28667;50.758;6.096;2023-04-03T04:34:01;-1.40;99.90
43043;DHT22;28667;50.758;6.096;2023-04-03T04:36:27;-1.50;99.90
43043;DHT22;28667;50.758;6.096;2023-04-03T04:38:53;-1.40;99.90
43043;DHT22;28667;50.758;6.096;2023-04-03T04:41:28;-1.50;99.90
43043;DHT22;28667;50.758;6.096;2023-04-03T04:44:21;-1.50;99.90
43043;DHT22;28667;50.758;6.096;2023-04-03T04:47:09;-1.50;99.90
43043;DHT22;28667;50.758;6.096;2023-04-03T04:49:48;-1.50;99.90
43043;DHT22;28667;50.758;6.096;2023-04-03T04:52:27;-1.50;99.90
43043;DHT22;28667;50.758;6.096;2023-04-03T04:55:10;-1.50;99.90
43043;DHT22;28667;50.758;6.096;2023-04-03T04:57:39;-1.50;99.90
43043;DHT22;28667;50.758;6.096;2023-04-03T05:00:16;-1.50;99.90
43043;DHT22;28667;50.758;6.096;2023-04-03T05:02:56;-1.50;99.90
43043;DHT22;28667;50.758;6.096;2023-04-03T05:05:46;-1.50;99.90
43043;DHT22;28667;50.758;6.096;2023-04-03T05:08:16;-1.50;99.90
43043;DHT22;28667;50.758;6.096;2023-04-03T05:10:46;-1.60;99.90
43043;DHT22;28667;50.758;6.096;2023-04-03T05:13:15;-1.60;99.90
43043;DHT22;28667;50.758;6.096;2023-04-03T05:15:53;-1.60;99.90
43043;DHT22;28667;50.758;6.096;2023-04-03T05:18:32;-1.60;99.90
43043;DHT22;28667;50.758;6.096;2023-04-03T05:21:10;-1.60;99.90
43043;DHT22;28667;50.758;6.096;2023-04-03T05:23:48;-1.60;99.90
43043;DHT22;28667;50.758;6.096;2023-04-03T05:26:30;-1.50;99.90
43043;DHT22;28667;50.758;6.096;2023-04-03T05:28:58;-1.60;99.90
43043;DHT22;28667;50.758;6.096;2023-04-03T05:31:34;-1.50;99.90
43043;DHT22;28667;50.758;6.096;2023-04-03T05:34:35;-1.60;99.90
43043;DHT22;28667;50.758;6.096;2023-04-03T05:37:45;-1.50;99.90
43043;DHT22;28667;50.758;6.096;2023-04-03T05:40:24;-1.50;99.90
43043;DHT22;28667;50.758;6.096;2023-04-03T05:42:56;-1.50;99.90
43043;DHT22;28667;50.758;6.096;2023-04-03T05:45:34;-1.50;99.90
43043;DHT22;28667;50.758;6.096;2023-04-03T05:48:03;-1.40;99.90
43043;DHT22;28667;50.758;6.096;2023-04-03T05:50:32;-1.40;99.90
43043;DHT22;28667;50.758;6.096;2023-04-03T05:53:03;-1.40;99.90
43043;DHT22;28667;50.758;6.096;2023-04-03T05:55:32;-1.40;99.90
43043;DHT22;28667;50.758;6.096;2023-04-03T05:58:21;-1.30;99.90
43043;DHT22;28667;50.758;6.096;2023-04-03T06:00:58;-1.30;99.90
43043;DHT22;28667;50.758;6.096;2023-04-03T06:03:28;-1.30;99.90
43043;DHT22;28667;50.758;6.096;2023-04-03T06:05:55;-1.20;99.90
43043;DHT22;28667;50.758;6.096;2023-04-03T06:08:35;-1.20;99.90
43043;DHT22;28667;50.758;6.096;2023-04-03T06:11:26;-1.20;99.90
43043;DHT22;28667;50.758;6.096;2023-04-03T06:14:01;-1.20;99.90
43043;DHT22;28667;50.758;6.096;2023-04-03T06:16:34;-1.10;99.90
43043;DHT22;28667;50.758;6.096;2023-04-03T06:19:16;-1.10;99.90
43043;DHT22;28667;50.758;6.096;2023-04-03T06:21:47;-1.00;99.90
43043;DHT22;28667;50.758;6.096;2023-04-03T06:24:18;-1.00;99.90
43043;DHT22;28667;50.758;6.096;2023-04-03T06:26:49;-1.00;99.90
43043;DHT22;28667;50.758;6.096;2023-04-03T06:29:23;-0.90;99.90
43043;DHT22;28667;50.758;6.096;2023-04-03T06:31:56;-0.80;99.90
43043;DHT22;28667;50.758;6.096;2023-04-03T06:34:28;-0.80;99.90
43043;DHT22;28667;50.758;6.096;2023-04-03T06:36:54;-0.70;99.90
43043;DHT22;28667;50.758;6.096;2023-04-03T06:39:22;-0.60;99.90
43043;DHT22;28667;50.758;6.096;2023-04-03T06:42:04;-0.50;99.90
43043;DHT22;28667;50.758;6.096;2023-04-03T06:44:38;-0.40;99.90
43043;DHT22;28667;50.758;6.096;2023-04-03T06:47:31;-0.30;99.90
43043;DHT22;28667;50.758;6.096;2023-04-03T06:49:59;-0.20;99.90
43043;DHT22;28667;50.758;6.096;2023-04-03T06:52:40;-0.10;99.90
43043;DHT22;28667;50.758;6.096;2023-04-03T06:55:13;0.00;99.90
43043;DHT22;28667;50.758;6.096;2023-04-03T06:57:46;0.10;99.90
43043;DHT22;28667;50.758;6.096;2023-04-03T07:00:21;0.30;99.90
43043;DHT22;28667;50.758;6.096;2023-04-03T07:02:52;0.40;99.90
43043;DHT22;28667;50.758;6.096;2023-04-03T07:05:24;0.50;99.90
43043;DHT22;28667;50.758;6.096;2023-04-03T07:07:57;0.60;99.90
43043;DHT22;28667;50.758;6.096;2023-04-03T07:10:24;0.70;99.90
43043;DHT22;28667;50.758;6.096;2023-04-03T07:12:53;0.80;99.90
43043;DHT22;28667;50.758;6.096;2023-04-03T07:15:22;0.90;99.90
43043;DHT22;28667;50.758;6.096;2023-04-03T07:17:54;1.00;99.90
43043;DHT22;28667;50.758;6.096;2023-04-03T07:20:23;1.00;99.90
43043;DHT22;28667;50.758;6.096;2023-04-03T07:22:57;1.10;99.90
43043;DHT22;28667;50.758;6.096;2023-04-03T07:25:24;1.20;99.90
43043;DHT22;28667;50.758;6.096;2023-04-03T07:27:59;1.30;99.90
43043;DHT22;28667;50.758;6.096;2023-04-03T07:30:27;1.30;99.90
43043;DHT22;28667;50.758;6.096;2023-04-03T07:33:21;1.40;99.90
43043;DHT22;28667;50.758;6.096;2023-04-03T07:35:48;1.50;99.90
43043;DHT22;28667;50.758;6.096;2023-04-03T07:38:15;1.60;99.90
43043;DHT22;28667;50.758;6.096;2023-04-03T07:40:56;1.60;99.90
43043;DHT22;28667;50.758;6.096;2023-04-03T07:43:39;1.70;99.90
43043;DHT22;28667;50.758;6.096;2023-04-03T07:46:08;1.80;99.90
43043;DHT22;28667;50.758;6.096;2023-04-03T07:48:49;1.90;99.90
43043;DHT22;28667;50.758;6.096;2023-04-03T07:51:23;2.00;99.90
43043;DHT22;28667;50.758;6.096;2023-04-03T07:54:01;2.00;99.90
43043;DHT22;28667;50.758;6.096;2023-04-03T07:56:31;2.10;99.90
43043;DHT22;28667;50.758;6.096;2023-04-03T07:59:00;2.20;99.90
43043;DHT22;28667;50.758;6.096;2023-04-03T08:01:30;2.30;99.90
43043;DHT22;28667;50.758;6.096;2023-04-03T08:04:07;2.30;99.90
43043;DHT22;28667;50.758;6.096;2023-04-03T08:06:35;2.40;99.90
43043;DHT22;28667;50.758;6.096;2023-04-03T08:09:12;2.40;99.90
43043;DHT22;28667;50.758;6.096;2023-04-03T08:11:49;2.50;99.90
43043;DHT22;28667;50.758;6.096;2023-04-03T08:14:20;2.60;99.90
43043;DHT22;28667;50.758;6.096;2023-04-03T08:16:52;2.60;99.90
43043;DHT22;28667;50.758;6.096;2023-04-03T08:19:43;2.60;99.90
43043;DHT22;28667;50.758;6.096;2023-04-03T08:22:13;2.70;99.90
43043;DHT22;28667;50.758;6.096;2023-04-03T08:24:41;2.80;99.90
43043;DHT22;28667;50.758;6.096;2023-04-03T08:27:25;2.80;99.90
43043;DHT22;28667;50.758;6.096;2023-04-03T08:30:02;2.90;99.90
43043;DHT22;28667;50.758;6.096;2023-04-03T08:32:33;2.90;99.90
43043;DHT22;28667;50.758;6.096;2023-04-03T08:34:58;3.00;99.90
43043;DHT22;28667;50.758;6.096;2023-04-03T08:37:35;3.00;99.90
43043;DHT22;28667;50.758;6.096;2023-04-03T08:40:05;3.00;99.90
43043;DHT22;28667;50.758;6.096;2023-04-03T08:45:45;3.10;99.90
43043;DHT22;28667;50.758;6.096;2023-04-03T08:48:38;3.20;99.90
43043;DHT22;28667;50.758;6.096;2023-04-03T08:51:23;3.20;99.90
43043;DHT22;28667;50.758;6.096;2023-04-03T08:54:24;3.20;99.90
43043;DHT22;28667;50.758;6.096;2023-04-03T08:57:04;3.30;99.90
43043;DHT22;28667;50.758;6.096;2023-04-03T08:59:46;3.40;99.90
43043;DHT22;28667;50.758;6.096;2023-04-03T09:02:56;3.50;99.90
43043;DHT22;28667;50.758;6.096;2023-04-03T09:05:54;3.60;99.90
43043;DHT22;28667;50.758;6.096;2023-04-03T09:17:09;3.70;99.90
43043;DHT22;28667;50.758;6.096;2023-04-03T09:22:31;3.80;99.90
43043;DHT22;28667;50.758;6.096;2023-04-03T09:25:32;3.70;99.90
43043;DHT22;28667;50.758;6.096;2023-04-03T09:28:16;3.70;99.90
43043;DHT22;28667;50.758;6.096;2023-04-03T09:30:45;3.70;99.90
43043;DHT22;28667;50.758;6.096;2023-04-03T09:33:18;3.80;99.90
43043;DHT22;28667;50.758;6.096;2023-04-03T09:35:47;3.70;99.90
43043;DHT22;28667;50.758;6.096;2023-04-03T09:38:29;3.80;99.90
43043;DHT22;28667;50.758;6.096;2023-04-03T09:41:18;3.80;99.90
43043;DHT22;28667;50.758;6.096;2023-04-03T09:44:02;3.80;99.90
43043;DHT22;28667;50.758;6.096;2023-04-03T09:46:40;3.90;99.90
43043;DHT22;28667;50.758;6.096;2023-04-03T09:49:16;4.00;99.90
43043;DHT22;28667;50.758;6.096;2023-04-03T09:51:47;4.10;99.90
43043;DHT22;28667;50.758;6.096;2023-04-03T09:54:40;4.10;99.90
43043;DHT22;28667;50.758;6.096;2023-04-03T09:57:11;4.20;99.90
43043;DHT22;28667;50.758;6.096;2023-04-03T10:00:30;4.30;99.90
43043;DHT22;28667;50.758;6.096;2023-04-03T10:03:43;4.40;99.90
43043;DHT22;28667;50.758;6.096;2023-04-03T10:06:23;4.50;99.90
43043;DHT22;28667;50.758;6.096;2023-04-03T10:09:25;4.40;99.90
43043;DHT22;28667;50.758;6.096;2023-04-03T10:12:18;4.50;99.90
43043;DHT22;28667;50.758;6.096;2023-04-03T10:14:59;4.60;99.90
43043;DHT22;28667;50.758;6.096;2023-04-03T10:18:02;4.60;99.90
43043;DHT22;28667;50.758;6.096;2023-04-03T10:21:00;4.60;99.90
43043;DHT22;28667;50.758;6.096;2023-04-03T10:27:25;4.70;99.90
43043;DHT22;28667;50.758;6.096;2023-04-03T10:33:39;4.60;99.90
43043;DHT22;28667;50.758;6.096;2023-04-03T10:36:36;4.70;99.90
43043;DHT22;28667;50.758;6.096;2023-04-03T10:42:32;4.90;99.90
43043;DHT22;28667;50.758;6.096;2023-04-03T10:46:02;4.90;99.90
43043;DHT22;28667;50.758;6.096;2023-04-03T10:48:59;5.00;99.90
43043;DHT22;28667;50.758;6.096;2023-04-03T10:54:39;5.20;99.90
43043;DHT22;28667;50.758;6.096;2023-04-03T10:57:31;5.30;99.90
43043;DHT22;28667;50.758;6.096;2023-04-03T11:00:14;5.40;99.90
43043;DHT22;28667;50.758;6.096;2023-04-03T11:03:50;5.60;99.90
43043;DHT22;28667;50.758;6.096;2023-04-03T11:05:59;5.60;99.90
43043;DHT22;28667;50.758;6.096;2023-04-03T11:11:39;5.70;99.90
43043;DHT22;28667;50.758;6.096;2023-04-03T11:14:29;5.70;99.90
43043;DHT22;28667;50.758;6.096;2023-04-03T11:17:28;5.70;99.90
43043;DHT22;28667;50.758;6.096;2023-04-03T11:20:30;5.70;99.90
43043;DHT22;28667;50.758;6.096;2023-04-03T11:23:25;5.80;99.00
43043;DHT22;28667;50.758;6.096;2023-04-03T11:26:12;5.80;98.90
43043;DHT22;28667;50.758;6.096;2023-04-03T11:28:46;5.90;99.30
43043;DHT22;28667;50.758;6.096;2023-04-03T11:34:45;6.10;99.10
43043;DHT22;28667;50.758;6.096;2023-04-03T11:40:08;6.20;99.50
43043;DHT22;28667;50.758;6.096;2023-04-03T11:43:06;6.30;98.10
43043;DHT22;28667;50.758;6.096;2023-04-03T11:46:03;6.40;97.20
43043;DHT22;28667;50.758;6.096;2023-04-03T11:48:42;6.40;97.00
43043;DHT22;28667;50.758;6.096;2023-04-03T11:57:44;6.60;97.20
43043;DHT22;28667;50.758;6.096;2023-04-03T12:09:57;6.80;94.30
43043;DHT22;28667;50.758;6.096;2023-04-03T12:12:56;6.90;94.70
43043;DHT22;28667;50.758;6.096;2023-04-03T12:15:50;7.00;94.60
43043;DHT22;28667;50.758;6.096;2023-04-03T12:24:39;7.10;96.20
43043;DHT22;28667;50.758;6.096;2023-04-03T12:27:36;7.20;95.00
43043;DHT22;28667;50.758;6.096;2023-04-03T12:30:27;7.20;94.50
43043;DHT22;28667;50.758;6.096;2023-04-03T12:33:43;7.10;94.30
43043;DHT22;28667;50.758;6.096;2023-04-03T12:36:48;7.20;93.70
43043;DHT22;28667;50.758;6.096;2023-04-03T12:43:03;7.30;91.70
43043;DHT22;28667;50.758;6.096;2023-04-03T12:45:51;7.30;91.50
43043;DHT22;28667;50.758;6.096;2023-04-03T12:48:29;7.30;87.80
43043;DHT22;28667;50.758;6.096;2023-04-03T12:51:38;7.40;90.40
43043;DHT22;28667;50.758;6.096;2023-04-03T12:54:38;7.50;91.60
43043;DHT22;28667;50.758;6.096;2023-04-03T12:57:23;7.60;90.40
43043;DHT22;28667;50.758;6.096;2023-04-03T12:59:58;7.60;91.20
43043;DHT22;28667;50.758;6.096;2023-04-03T13:02:32;7.70;91.80
43043;DHT22;28667;50.758;6.096;2023-04-03T13:05:18;7.80;92.00
43043;DHT22;28667;50.758;6.096;2023-04-03T13:08:03;7.80;91.70
43043;DHT22;28667;50.758;6.096;2023-04-03T13:10:32;7.80;91.50
43043;DHT22;28667;50.758;6.096;2023-04-03T13:13:17;7.90;92.00
43043;DHT22;28667;50.758;6.096;2023-04-03T13:15:54;7.90;92.20
43043;DHT22;28667;50.758;6.096;2023-04-03T13:18:35;8.00;91.70
43043;DHT22;28667;50.758;6.096;2023-04-03T13:21:30;8.00;90.90
43043;DHT22;28667;50.758;6.096;2023-04-03T13:24:16;8.00;91.00
43043;DHT22;28667;50.758;6.096;2023-04-03T13:26:51;7.90;90.20
43043;DHT22;28667;50.758;6.096;2023-04-03T13:29:23;7.80;90.50
43043;DHT22;28667;50.758;6.096;2023-04-03T13:32:00;7.90;89.60
43043;DHT22;28667;50.758;6.096;2023-04-03T13:34:43;7.90;87.80
43043;DHT22;28667;50.758;6.096;2023-04-03T13:37:33;8.00;87.90
43043;DHT22;28667;50.758;6.096;2023-04-03T13:42:36;8.10;86.40
43043;DHT22;28667;50.758;6.096;2023-04-03T13:45:52;8.10;82.80
43043;DHT22;28667;50.758;6.096;2023-04-03T13:48:22;8.10;81.10
43043;DHT22;28667;50.758;6.096;2023-04-03T13:51:12;8.20;80.70
43043;DHT22;28667;50.758;6.096;2023-04-03T13:54:00;8.20;78.40
43043;DHT22;28667;50.758;6.096;2023-04-03T13:56:39;8.20;76.90
43043;DHT22;28667;50.758;6.096;2023-04-03T13:59:21;8.30;77.60
43043;DHT22;28667;50.758;6.096;2023-04-03T14:07:38;8.30;79.00
43043;DHT22;28667;50.758;6.096;2023-04-03T14:10:12;8.40;78.10
43043;DHT22;28667;50.758;6.096;2023-04-03T14:12:49;8.40;78.90
43043;DHT22;28667;50.758;6.096;2023-04-03T14:15:28;8.40;77.30
43043;DHT22;28667;50.758;6.096;2023-04-03T14:18:31;8.40;80.00
43043;DHT22;28667;50.758;6.096;2023-04-03T14:21:05;8.50;78.30
43043;DHT22;28667;50.758;6.096;2023-04-03T14:23:44;8.50;78.10
43043;DHT22;28667;50.758;6.096;2023-04-03T14:26:22;8.50;78.20
43043;DHT22;28667;50.758;6.096;2023-04-03T14:28:56;8.60;76.90
43043;DHT22;28667;50.758;6.096;2023-04-03T14:31:26;8.70;77.30
43043;DHT22;28667;50.758;6.096;2023-04-03T14:34:09;8.80;77.40
43043;DHT22;28667;50.758;6.096;2023-04-03T14:36:43;8.80;75.30
43043;DHT22;28667;50.758;6.096;2023-04-03T14:39:27;8.80;75.70
43043;DHT22;28667;50.758;6.096;2023-04-03T14:42:00;8.90;74.50
43043;DHT22;28667;50.758;6.096;2023-04-03T14:44:33;8.90;75.00
43043;DHT22;28667;50.758;6.096;2023-04-03T14:47:03;8.90;75.60
43043;DHT22;28667;50.758;6.096;2023-04-03T14:49:31;8.90;76.00
43043;DHT22;28667;50.758;6.096;2023-04-03T14:52:23;9.00;75.00
43043;DHT22;28667;50.758;6.096;2023-04-03T14:54:54;8.90;74.00
43043;DHT22;28667;50.758;6.096;2023-04-03T14:57:27;9.00;74.20
43043;DHT22;28667;50.758;6.096;2023-04-03T14:59:56;9.00;73.90
43043;DHT22;28667;50.758;6.096;2023-04-03T15:02:33;9.00;73.30
43043;DHT22;28667;50.758;6.096;2023-04-03T15:05:06;9.10;73.90
43043;DHT22;28667;50.758;6.096;2023-04-03T15:08:04;9.10;73.00
43043;DHT22;28667;50.758;6.096;2023-04-03T15:10:40;9.10;74.00
43043;DHT22;28667;50.758;6.096;2023-04-03T15:13:23;9.20;74.10
43043;DHT22;28667;50.758;6.096;2023-04-03T15:15:51;9.20;73.50
43043;DHT22;28667;50.758;6.096;2023-04-03T15:18:43;9.30;72.90
43043;DHT22;28667;50.758;6.096;2023-04-03T15:21:12;9.40;74.20
43043;DHT22;28667;50.758;6.096;2023-04-03T15:23:39;9.40;74.60
43043;DHT22;28667;50.758;6.096;2023-04-03T15:26:06;9.50;72.70
43043;DHT22;28667;50.758;6.096;2023-04-03T15:28:47;9.50;73.10
43043;DHT22;28667;50.758;6.096;2023-04-03T15:31:14;9.60;72.50
43043;DHT22;28667;50.758;6.096;2023-04-03T15:33:44;9.60;72.70
43043;DHT22;28667;50.758;6.096;2023-04-03T15:36:15;9.70;73.50
43043;DHT22;28667;50.758;6.096;2023-04-03T15:38:52;9.70;72.60
43043;DHT22;28667;50.758;6.096;2023-04-03T15:41:40;9.70;71.70
43043;DHT22;28667;50.758;6.096;2023-04-03T15:44:13;9.70;72.20
43043;DHT22;28667;50.758;6.096;2023-04-03T15:46:46;9.60;72.30
43043;DHT22;28667;50.758;6.096;2023-04-03T15:49:14;9.60;72.80
43043;DHT22;28667;50.758;6.096;2023-04-03T15:52:05;9.60;72.60
43043;DHT22;28667;50.758;6.096;2023-04-03T15:54:36;9.60;73.10
43043;DHT22;28667;50.758;6.096;2023-04-03T15:57:08;9.60;71.10
43043;DHT22;28667;50.758;6.096;2023-04-03T15:59:36;9.60;71.40
43043;DHT22;28667;50.758;6.096;2023-04-03T16:02:14;9.60;72.00
43043;DHT22;28667;50.758;6.096;2023-04-03T16:04:49;9.60;71.10
43043;DHT22;28667;50.758;6.096;2023-04-03T16:07:42;9.50;70.30
43043;DHT22;28667;50.758;6.096;2023-04-03T16:10:14;9.50;70.30
43043;DHT22;28667;50.758;6.096;2023-04-03T16:13:06;9.40;70.00
43043;DHT22;28667;50.758;6.096;2023-04-03T16:15:36;9.40;69.80
43043;DHT22;28667;50.758;6.096;2023-04-03T16:18:17;9.50;69.30
43043;DHT22;28667;50.758;6.096;2023-04-03T16:20:55;9.50;69.30
43043;DHT22;28667;50.758;6.096;2023-04-03T16:23:27;9.50;70.10
43043;DHT22;28667;50.758;6.096;2023-04-03T16:25:54;9.60;70.40
43043;DHT22;28667;50.758;6.096;2023-04-03T16:28:23;9.60;70.70
43043;DHT22;28667;50.758;6.096;2023-04-03T16:30:51;9.60;70.30
43043;DHT22;28667;50.758;6.096;2023-04-03T16:33:24;9.60;70.10
43043;DHT22;28667;50.758;6.096;2023-04-03T16:35:58;9.60;70.50
43043;DHT22;28667;50.758;6.096;2023-04-03T16:38:38;9.60;70.60
43043;DHT22;28667;50.758;6.096;2023-04-03T16:41:27;9.60;70.60
43043;DHT22;28667;50.758;6.096;2023-04-03T16:44:12;9.60;70.50
43043;DHT22;28667;50.758;6.096;2023-04-03T16:46:41;9.60;70.80
43043;DHT22;28667;50.758;6.096;2023-04-03T16:49:13;9.50;71.80
43043;DHT22;28667;50.758;6.096;2023-04-03T16:51:50;9.50;73.80
43043;DHT22;28667;50.758;6.096;2023-04-03T16:54:17;9.50;74.80
43043;DHT22;28667;50.758;6.096;2023-04-03T16:56:45;9.40;75.10
43043;DHT22;28667;50.758;6.096;2023-04-03T16:59:18;9.40;74.70
43043;DHT22;28667;50.758;6.096;2023-04-03T17:01:46;9.40;74.40
43043;DHT22;28667;50.758;6.096;2023-04-03T17:04:26;9.30;74.00
43043;DHT22;28667;50.758;6.096;2023-04-03T17:06:57;9.20;75.30
43043;DHT22;28667;50.758;6.096;2023-04-03T17:09:30;9.10;75.40
43043;DHT22;28667;50.758;6.096;2023-04-03T17:12:19;9.00;75.70
43043;DHT22;28667;50.758;6.096;2023-04-03T17:14:47;8.90;77.10
43043;DHT22;28667;50.758;6.096;2023-04-03T17:17:16;8.80;77.40
43043;DHT22;28667;50.758;6.096;2023-04-03T17:19:50;8.80;76.90
43043;DHT22;28667;50.758;6.096;2023-04-03T17:22:20;8.70;77.30
43043;DHT22;28667;50.758;6.096;2023-04-03T17:25:02;8.60;77.90
43043;DHT22;28667;50.758;6.096;2023-04-03T17:27:35;8.60;78.10
43043;DHT22;28667;50.758;6.096;2023-04-03T17:30:01;8.50;78.80
43043;DHT22;28667;50.758;6.096;2023-04-03T17:32:28;8.40;79.00
43043;DHT22;28667;50.758;6.096;2023-04-03T17:34:59;8.30;78.90
43043;DHT22;28667;50.758;6.096;2023-04-03T17:37:29;8.30;78.80
43043;DHT22;28667;50.758;6.096;2023-04-03T17:39:59;8.20;80.50
43043;DHT22;28667;50.758;6.096;2023-04-03T17:42:31;8.10;82.70
43043;DHT22;28667;50.758;6.096;2023-04-03T17:44:57;8.00;84.30
43043;DHT22;28667;50.758;6.096;2023-04-03T17:47:30;7.90;85.90
43043;DHT22;28667;50.758;6.096;2023-04-03T17:50:05;7.70;86.90
43043;DHT22;28667;50.758;6.096;2023-04-03T17:52:32;7.60;87.80
43043;DHT22;28667;50.758;6.096;2023-04-03T17:55:03;7.40;89.10
43043;DHT22;28667;50.758;6.096;2023-04-03T17:57:56;7.20;89.60
43043;DHT22;28667;50.758;6.096;2023-04-03T18:00:50;7.00;90.20
43043;DHT22;28667;50.758;6.096;2023-04-03T18:03:17;6.90;90.70
43043;DHT22;28667;50.758;6.096;2023-04-03T18:05:50;6.80;90.80
43043;DHT22;28667;50.758;6.096;2023-04-03T18:08:19;6.60;91.10
43043;DHT22;28667;50.758;6.096;2023-04-03T18:10:49;6.50;91.60
43043;DHT22;28667;50.758;6.096;2023-04-03T18:13:17;6.40;91.90